KRNH/RNH METAR and TAF weather

Enter ICAO airport designator
Station Type Date Time Source
KRNH METAR 2019/12/10 06:15 UTC NOAA

KRNH 100615Z AUTO 31006KT 10SM CLR M19/M22 A2996 RMK AO2 T11901220


Station Type Date Time Source
KRNH Decoded METAR 2019/12/10 06:15 UTC NOAA

New Richmond, New Richmond Municipal Airport, WI, United States (KRNH) 45-08-54N 092-32-17W
Dec 10, 2019 - 01:15 AM EST / 2019.12.10 0615 UTC
Wind: from the NW (310 degrees) at 7 MPH (6 KT):0
Visibility: 10 mile(s):0
Sky conditions: clear
Temperature: -2.2 F (-19.0 C)
Windchill: -16 F (-27 C):2
Dew Point: -7.6 F (-22.0 C)
Relative Humidity: 77%
Pressure (altimeter): 29.96 in. Hg (1014 hPa)
ob: KRNH 100615Z AUTO 31006KT 10SM CLR M19/M22 A2996 RMK AO2 T11901220
cycle: 6

Station Type Date Time Source
KRNH TAF 2019/12/10 06:22 UTC NOAA

TAF KRNH 100520Z 1006/1106 30009KT P6SM SKC
FM101000 29006KT P6SM FEW050 SCT120
FM102100 27009KT P6SM SCT150
FM110000 24006KT P6SM SKC

Example: see airport list